Fire Weather Observation
Issued by NWS Grand Junction, CO

Home | Current Version | Previous Version | Text Only | Print | Product List | Glossary Off
Versions: 1 2 3 4 5 6 7 8 9 10 11 12 13 14 15 16 17 18 19 20 21 22 23 24 25 26 27 28 29 30 31 32 33 34 35 36 37 38 39 40 41 42 43 44 45 46 47 48 49 50

000
SHUS65 KGJT 312018
FWOGJT

DAILY FIRE WEATHER OBSERVATION
NATIONAL WEATHER SERVICE GRAND JUNCTION CO
212 PM MDT SUN AUG 31 2014

STATE OF THE WEATHER (W)               1
DRY BULB TEMPERATURE                   87   DEGREES FAHRENHEIT
RELATIVE HUMIDITY (RH)                 13   PERCENT
LIGHTNING ACTIVITY LEVEL
  (LAL - MIDNIGHT TO 2 PM)             1
WIND DIRECTION                         270  DEGREES (C IF CALM)
WIND SPEED                             25   MPH
MAX TEMP (2 PM - 2 PM)                 87   DEGREES FAHRENHEIT
MIN TEMP (2 PM - 2 PM)                 60   DEGREES FAHRENHEIT
MAX RH (2 PM - 2 PM)                   63   PERCENT
MIN RH (2 PM - 2 PM)                   13   PERCENT
PCPN DURATION                          0.0  HOURS
PCPN AMT (2 PM - 2 PM)                 0.0  INCHES
LAL (2 PM - 2 PM)                      2

$$

METAR KGJT 311953Z 26022G30KT 10SM CLR 31/M01 A2990 RMK AO2 PK
      WND 24031/1919 SLP047 T03061011


USA.gov is the U.S. government's official web portal to all federal, state and local government web resources and services.